RYR2LP EGSS-LERS
Flight info
| Callsign | RYR2LP |
|---|---|
| Flight time | 1h 50m |
| Altitude | 35000 |
| Route | NUGBO M183 SILVA Q41 COWLY UT71 VAPID UN859 SOPIL DCT BALAN DCT EVPOK DCT NARAK DCT GAI DCT LOMRA DCT ROCAN DCT PUMAL/N0416F230 N31 BERGA |
| Aircraft | B738/M-SDE2E3FGHIRWXY/LB1 |
Departure
| Time | 2026-05-06 15:41 |
|---|---|
| Airport | London Stansted Airport (EGSS) |
Arrival
| Time | 2026-05-06 17:31 |
|---|---|
| Airport | Reus Airport (LERS) |
| Time | Latitude | Longitude | Altitude | Speed | Heading |
|---|---|---|---|---|---|
| 2026-05-06 15:13 | 51.89175 | 0.25482 | 348 ft | 0 kts | 43° |
| 2026-05-06 15:29 | 51.89169 | 0.25473 | 348 ft | 2 kts | 43° |
| 2026-05-06 15:30 | 51.89157 | 0.25455 | 354 ft | 2 kts | 43° |
| 2026-05-06 15:30 | 51.89145 | 0.25437 | 350 ft | 2 kts | 43° |
| 2026-05-06 15:30 | 51.89131 | 0.25424 | 357 ft | 2 kts | 353° |
| 2026-05-06 15:30 | 51.89116 | 0.25434 | 351 ft | 2 kts | 317° |
| 2026-05-06 15:31 | 51.89115 | 0.25436 | 352 ft | 0 kts | 313° |
| 2026-05-06 15:34 | 51.89115 | 0.25435 | 352 ft | 0 kts | 313° |
| 2026-05-06 15:34 | 51.89123 | 0.25422 | 356 ft | 3 kts | 313° |
| 2026-05-06 15:34 | 51.89149 | 0.25377 | 358 ft | 7 kts | 314° |
| 2026-05-06 15:34 | 51.89174 | 0.25291 | 348 ft | 10 kts | 259° |
| 2026-05-06 15:35 | 51.89119 | 0.25192 | 348 ft | 14 kts | 223° |
| 2026-05-06 15:35 | 51.89039 | 0.25073 | 351 ft | 17 kts | 223° |
| 2026-05-06 15:35 | 51.88943 | 0.24929 | 348 ft | 20 kts | 223° |
| 2026-05-06 15:35 | 51.88833 | 0.24762 | 352 ft | 23 kts | 223° |
| 2026-05-06 15:36 | 51.88710 | 0.24578 | 352 ft | 24 kts | 223° |
| 2026-05-06 15:36 | 51.88592 | 0.24401 | 348 ft | 23 kts | 223° |
| 2026-05-06 15:36 | 51.88478 | 0.24228 | 351 ft | 22 kts | 223° |
| 2026-05-06 15:36 | 51.88365 | 0.24059 | 348 ft | 22 kts | 223° |
| 2026-05-06 15:37 | 51.88252 | 0.23889 | 351 ft | 22 kts | 223° |
| 2026-05-06 15:37 | 51.88143 | 0.23728 | 353 ft | 21 kts | 222° |
| 2026-05-06 15:37 | 51.88038 | 0.23569 | 350 ft | 20 kts | 223° |
| 2026-05-06 15:37 | 51.87937 | 0.23418 | 352 ft | 20 kts | 223° |
| 2026-05-06 15:38 | 51.87839 | 0.23270 | 355 ft | 19 kts | 223° |
| 2026-05-06 15:38 | 51.87743 | 0.23126 | 351 ft | 18 kts | 226° |
| 2026-05-06 15:38 | 51.87775 | 0.22960 | 348 ft | 17 kts | 309° |
| 2026-05-06 15:38 | 51.87732 | 0.22812 | 354 ft | 16 kts | 223° |
| 2026-05-06 15:39 | 51.87652 | 0.22693 | 350 ft | 15 kts | 223° |
| 2026-05-06 15:39 | 51.87576 | 0.22578 | 347 ft | 15 kts | 223° |
| 2026-05-06 15:39 | 51.87520 | 0.22443 | 352 ft | 16 kts | 278° |
| 2026-05-06 15:39 | 51.87594 | 0.22302 | 335 ft | 18 kts | 325° |
| 2026-05-06 15:40 | 51.87704 | 0.22290 | 337 ft | 17 kts | 34° |
| 2026-05-06 15:40 | 51.87798 | 0.22427 | 339 ft | 31 kts | 43° |
| 2026-05-06 15:40 | 51.88145 | 0.22948 | 335 ft | 103 kts | 43° |
| 2026-05-06 15:40 | 51.88821 | 0.23941 | 466 ft | 148 kts | 41° |
| 2026-05-06 15:41 | 51.89583 | 0.25050 | 1188 ft | 152 kts | 40° |
| 2026-05-06 15:41 | 51.90377 | 0.26262 | 1883 ft | 162 kts | 40° |
| 2026-05-06 15:41 | 51.91234 | 0.27575 | 2431 ft | 184 kts | 40° |
| 2026-05-06 15:41 | 51.92234 | 0.29066 | 2852 ft | 202 kts | 36° |
| 2026-05-06 15:42 | 51.93491 | 0.30065 | 3500 ft | 204 kts | 10° |
| 2026-05-06 15:42 | 51.94933 | 0.29944 | 4079 ft | 217 kts | 342° |
| 2026-05-06 15:42 | 51.96221 | 0.28631 | 4869 ft | 225 kts | 314° |
| 2026-05-06 15:42 | 51.97091 | 0.26325 | 4943 ft | 262 kts | 285° |
| 2026-05-06 15:43 | 51.97386 | 0.23324 | 4969 ft | 277 kts | 278° |
| 2026-05-06 15:43 | 51.97618 | 0.20247 | 4997 ft | 273 kts | 278° |
| 2026-05-06 15:43 | 51.97868 | 0.17202 | 4991 ft | 272 kts | 279° |
| 2026-05-06 15:43 | 51.98144 | 0.14180 | 5222 ft | 274 kts | 280° |
| 2026-05-06 15:44 | 51.98453 | 0.11148 | 6058 ft | 276 kts | 280° |
| 2026-05-06 15:44 | 51.98779 | 0.08062 | 6956 ft | 278 kts | 281° |
| 2026-05-06 15:44 | 51.98911 | 0.04962 | 7940 ft | 277 kts | 263° |
| 2026-05-06 15:44 | 51.98468 | 0.01904 | 8862 ft | 278 kts | 258° |
| 2026-05-06 15:45 | 51.98038 | -0.01179 | 9765 ft | 281 kts | 260° |
| 2026-05-06 15:45 | 51.97639 | -0.04289 | 10503 ft | 287 kts | 261° |
| 2026-05-06 15:45 | 51.97221 | -0.07596 | 10717 ft | 312 kts | 261° |
| 2026-05-06 15:45 | 51.96765 | -0.11148 | 11132 ft | 327 kts | 260° |
| 2026-05-06 15:46 | 51.96292 | -0.14790 | 11867 ft | 332 kts | 260° |
| 2026-05-06 15:46 | 51.95817 | -0.18434 | 12642 ft | 335 kts | 259° |
| 2026-05-06 15:46 | 51.95332 | -0.22128 | 13537 ft | 336 kts | 259° |
| 2026-05-06 15:46 | 51.94840 | -0.25880 | 14207 ft | 342 kts | 259° |
| 2026-05-06 15:47 | 51.94343 | -0.29651 | 14945 ft | 343 kts | 259° |
| 2026-05-06 15:47 | 51.93840 | -0.33478 | 15634 ft | 348 kts | 259° |
| 2026-05-06 15:47 | 51.93330 | -0.37340 | 16327 ft | 351 kts | 259° |
| 2026-05-06 15:47 | 51.92817 | -0.41211 | 17058 ft | 353 kts | 259° |
| 2026-05-06 15:48 | 51.92252 | -0.45050 | 17696 ft | 359 kts | 252° |
| 2026-05-06 15:48 | 51.90972 | -0.48547 | 18336 ft | 367 kts | 227° |
| 2026-05-06 15:48 | 51.88891 | -0.50944 | 18990 ft | 372 kts | 208° |
| 2026-05-06 15:48 | 51.86561 | -0.52792 | 19598 ft | 374 kts | 209° |
| 2026-05-06 15:49 | 51.84231 | -0.54731 | 20196 ft | 377 kts | 210° |
| 2026-05-06 15:49 | 51.81902 | -0.56703 | 20813 ft | 379 kts | 210° |
| 2026-05-06 15:49 | 51.79569 | -0.58694 | 21397 ft | 381 kts | 210° |
| 2026-05-06 15:49 | 51.77204 | -0.60718 | 21957 ft | 385 kts | 210° |
| 2026-05-06 15:50 | 51.75634 | -0.62061 | 22319 ft | 387 kts | 210° |
| 2026-05-06 15:50 | 51.72561 | -0.64689 | 23028 ft | 391 kts | 210° |
| 2026-05-06 15:50 | 51.70149 | -0.66749 | 23573 ft | 393 kts | 210° |
| 2026-05-06 15:50 | 51.67720 | -0.68820 | 24023 ft | 396 kts | 210° |
| 2026-05-06 15:51 | 51.65273 | -0.70904 | 24463 ft | 399 kts | 210° |
| 2026-05-06 15:51 | 51.62810 | -0.72998 | 24892 ft | 401 kts | 210° |
| 2026-05-06 15:51 | 51.60333 | -0.75103 | 25321 ft | 404 kts | 210° |
| 2026-05-06 15:51 | 51.57835 | -0.77221 | 25751 ft | 406 kts | 210° |
| 2026-05-06 15:52 | 51.55279 | -0.79054 | 26095 ft | 413 kts | 197° |
| 2026-05-06 15:52 | 51.52393 | -0.79508 | 26417 ft | 422 kts | 176° |
| 2026-05-06 15:52 | 51.49530 | -0.78404 | 26852 ft | 427 kts | 161° |
| 2026-05-06 15:52 | 51.46754 | -0.76673 | 27282 ft | 429 kts | 161° |
| 2026-05-06 15:53 | 51.43949 | -0.74985 | 27613 ft | 433 kts | 161° |
| 2026-05-06 15:53 | 51.41104 | -0.73307 | 27976 ft | 436 kts | 162° |
| 2026-05-06 15:53 | 51.38262 | -0.71654 | 28368 ft | 438 kts | 162° |
| 2026-05-06 15:53 | 51.35376 | -0.69988 | 28745 ft | 440 kts | 162° |
| 2026-05-06 15:54 | 51.33456 | -0.68884 | 28983 ft | 441 kts | 162° |
| 2026-05-06 15:54 | 51.30559 | -0.67224 | 29328 ft | 443 kts | 162° |
| 2026-05-06 15:54 | 51.27645 | -0.65557 | 29647 ft | 446 kts | 162° |
| 2026-05-06 15:54 | 51.24710 | -0.63881 | 30020 ft | 447 kts | 162° |
| 2026-05-06 15:55 | 51.21783 | -0.62210 | 30451 ft | 445 kts | 162° |
| 2026-05-06 15:55 | 51.18874 | -0.60551 | 30883 ft | 443 kts | 162° |
| 2026-05-06 15:55 | 51.15977 | -0.58900 | 31256 ft | 443 kts | 162° |
| 2026-05-06 15:55 | 51.13069 | -0.57245 | 31588 ft | 443 kts | 162° |
| 2026-05-06 15:56 | 51.10201 | -0.55617 | 31940 ft | 442 kts | 162° |
| 2026-05-06 15:56 | 51.07307 | -0.53975 | 32327 ft | 441 kts | 162° |
| 2026-05-06 15:56 | 51.04420 | -0.52339 | 32679 ft | 441 kts | 162° |
| 2026-05-06 15:56 | 51.01533 | -0.50705 | 32996 ft | 441 kts | 162° |
| 2026-05-06 15:57 | 50.98641 | -0.49071 | 33342 ft | 440 kts | 162° |
| 2026-05-06 15:57 | 50.95760 | -0.47445 | 33710 ft | 439 kts | 162° |
| 2026-05-06 15:57 | 50.92881 | -0.45822 | 34024 ft | 439 kts | 162° |
| 2026-05-06 15:57 | 50.90006 | -0.44204 | 34277 ft | 439 kts | 162° |
| 2026-05-06 15:58 | 50.87112 | -0.42578 | 34506 ft | 440 kts | 162° |
| 2026-05-06 15:58 | 50.84229 | -0.40959 | 34757 ft | 440 kts | 162° |
| 2026-05-06 15:58 | 50.81354 | -0.39348 | 34975 ft | 440 kts | 162° |
| 2026-05-06 15:58 | 50.78445 | -0.37720 | 34950 ft | 445 kts | 162° |
| 2026-05-06 15:59 | 50.72602 | -0.34454 | 34955 ft | 443 kts | 162° |
| 2026-05-06 15:59 | 50.66864 | -0.31255 | 34962 ft | 437 kts | 162° |
| 2026-05-06 16:00 | 50.61125 | -0.28065 | 34973 ft | 437 kts | 162° |
| 2026-05-06 16:00 | 50.55364 | -0.24871 | 34968 ft | 438 kts | 162° |
| 2026-05-06 16:01 | 50.49613 | -0.21691 | 34969 ft | 438 kts | 162° |
| 2026-05-06 16:01 | 50.43890 | -0.18534 | 34971 ft | 439 kts | 162° |
| 2026-05-06 16:02 | 50.38120 | -0.15359 | 34968 ft | 440 kts | 161° |
| 2026-05-06 16:02 | 50.32332 | -0.12183 | 34970 ft | 440 kts | 161° |
| 2026-05-06 16:03 | 50.26541 | -0.09013 | 34972 ft | 441 kts | 161° |
| 2026-05-06 16:03 | 50.20731 | -0.05840 | 34970 ft | 442 kts | 161° |
| 2026-05-06 16:04 | 50.14922 | -0.02676 | 34981 ft | 442 kts | 161° |
| 2026-05-06 16:04 | 50.09140 | 0.00430 | 34965 ft | 442 kts | 164° |
| 2026-05-06 16:05 | 50.03205 | 0.02872 | 34980 ft | 440 kts | 167° |
| 2026-05-06 16:05 | 49.97247 | 0.05073 | 34971 ft | 440 kts | 167° |
| 2026-05-06 16:06 | 49.91302 | 0.07340 | 34966 ft | 439 kts | 167° |
| 2026-05-06 16:06 | 49.85417 | 0.09635 | 34980 ft | 439 kts | 167° |
| 2026-05-06 16:07 | 49.79495 | 0.11948 | 34982 ft | 439 kts | 167° |
| 2026-05-06 16:07 | 49.73563 | 0.14257 | 34980 ft | 439 kts | 167° |
| 2026-05-06 16:08 | 49.67646 | 0.16554 | 34986 ft | 439 kts | 166° |
| 2026-05-06 16:08 | 49.61724 | 0.18938 | 34996 ft | 439 kts | 166° |
| 2026-05-06 16:09 | 49.55841 | 0.21338 | 34990 ft | 440 kts | 166° |
| 2026-05-06 16:09 | 49.49914 | 0.23739 | 34995 ft | 440 kts | 166° |
| 2026-05-06 16:10 | 49.43980 | 0.26130 | 34967 ft | 441 kts | 166° |
| 2026-05-06 16:10 | 49.38046 | 0.28515 | 34971 ft | 441 kts | 166° |
| 2026-05-06 16:11 | 49.32101 | 0.30898 | 34969 ft | 440 kts | 166° |
| 2026-05-06 16:11 | 49.26216 | 0.33317 | 34964 ft | 440 kts | 165° |
| 2026-05-06 16:12 | 49.20317 | 0.35816 | 34958 ft | 440 kts | 165° |
| 2026-05-06 16:12 | 49.14420 | 0.38304 | 34960 ft | 439 kts | 165° |
| 2026-05-06 16:13 | 49.08526 | 0.40774 | 34957 ft | 438 kts | 165° |
| 2026-05-06 16:13 | 49.02648 | 0.43228 | 34952 ft | 438 kts | 165° |
| 2026-05-06 16:14 | 48.96807 | 0.45660 | 34947 ft | 437 kts | 165° |
| 2026-05-06 16:14 | 48.90929 | 0.48101 | 34948 ft | 437 kts | 165° |
| 2026-05-06 16:15 | 48.85064 | 0.50533 | 34948 ft | 436 kts | 165° |
| 2026-05-06 16:15 | 48.79210 | 0.52953 | 34948 ft | 436 kts | 165° |
| 2026-05-06 16:16 | 48.73380 | 0.55269 | 34943 ft | 435 kts | 166° |
| 2026-05-06 16:16 | 48.67512 | 0.57542 | 34950 ft | 435 kts | 166° |
| 2026-05-06 16:17 | 48.61651 | 0.59821 | 34950 ft | 434 kts | 165° |
| 2026-05-06 16:17 | 48.55799 | 0.62100 | 34947 ft | 434 kts | 165° |
| 2026-05-06 16:18 | 48.49950 | 0.64388 | 34949 ft | 433 kts | 165° |
| 2026-05-06 16:18 | 48.44172 | 0.66743 | 34952 ft | 433 kts | 165° |
| 2026-05-06 16:19 | 48.38341 | 0.69125 | 34950 ft | 433 kts | 165° |
| 2026-05-06 16:19 | 48.32520 | 0.71484 | 34946 ft | 433 kts | 165° |
| 2026-05-06 16:20 | 48.26740 | 0.73818 | 34944 ft | 433 kts | 165° |
| 2026-05-06 16:20 | 48.20903 | 0.76146 | 34941 ft | 433 kts | 165° |
| 2026-05-06 16:21 | 48.15072 | 0.78435 | 34943 ft | 434 kts | 165° |
| 2026-05-06 16:21 | 48.09254 | 0.80716 | 34942 ft | 434 kts | 165° |
| 2026-05-06 16:22 | 48.03403 | 0.83009 | 34942 ft | 434 kts | 165° |
| 2026-05-06 16:22 | 47.97552 | 0.85299 | 34938 ft | 435 kts | 165° |
| 2026-05-06 16:23 | 47.91703 | 0.87583 | 34938 ft | 435 kts | 165° |
| 2026-05-06 16:23 | 47.85834 | 0.89869 | 34939 ft | 435 kts | 165° |
| 2026-05-06 16:24 | 47.79966 | 0.92146 | 34936 ft | 436 kts | 165° |
| 2026-05-06 16:24 | 47.74085 | 0.94419 | 34933 ft | 436 kts | 165° |
| 2026-05-06 16:25 | 47.68207 | 0.96688 | 34934 ft | 436 kts | 166° |
| 2026-05-06 16:25 | 47.62329 | 0.98952 | 34935 ft | 436 kts | 166° |
| 2026-05-06 16:26 | 47.56496 | 1.01193 | 34948 ft | 435 kts | 166° |
| 2026-05-06 16:26 | 47.50616 | 1.03449 | 34935 ft | 436 kts | 166° |
| 2026-05-06 16:27 | 47.44732 | 1.05693 | 34929 ft | 436 kts | 167° |
| 2026-05-06 16:27 | 47.38734 | 1.06467 | 34951 ft | 433 kts | 182° |
| 2026-05-06 16:28 | 47.32742 | 1.06216 | 34938 ft | 432 kts | 181° |
| 2026-05-06 16:28 | 47.26722 | 1.06036 | 34940 ft | 432 kts | 181° |
| 2026-05-06 16:29 | 47.20693 | 1.05898 | 34934 ft | 432 kts | 181° |
| 2026-05-06 16:29 | 47.14687 | 1.05767 | 34936 ft | 431 kts | 181° |
| 2026-05-06 16:30 | 47.09705 | 1.05657 | 34937 ft | 430 kts | 181° |
| 2026-05-06 16:30 | 47.02757 | 1.05503 | 34932 ft | 429 kts | 181° |
| 2026-05-06 16:31 | 46.96780 | 1.05283 | 34940 ft | 429 kts | 182° |
| 2026-05-06 16:31 | 46.90813 | 1.05002 | 34936 ft | 428 kts | 182° |
| 2026-05-06 16:32 | 46.84858 | 1.04732 | 34938 ft | 428 kts | 182° |
| 2026-05-06 16:32 | 46.78947 | 1.04474 | 34939 ft | 427 kts | 182° |
| 2026-05-06 16:33 | 46.72995 | 1.04218 | 34937 ft | 427 kts | 182° |
| 2026-05-06 16:34 | 46.64075 | 1.03834 | 34935 ft | 427 kts | 182° |
| 2026-05-06 16:34 | 46.58134 | 1.03579 | 34937 ft | 427 kts | 182° |
| 2026-05-06 16:35 | 46.52182 | 1.03391 | 34922 ft | 428 kts | 178° |
| 2026-05-06 16:35 | 46.46328 | 1.04932 | 34937 ft | 428 kts | 167° |
| 2026-05-06 16:36 | 46.40536 | 1.06959 | 34926 ft | 429 kts | 168° |
| 2026-05-06 16:36 | 46.34718 | 1.08940 | 34923 ft | 429 kts | 168° |
| 2026-05-06 16:37 | 46.28937 | 1.10873 | 34920 ft | 428 kts | 168° |
| 2026-05-06 16:37 | 46.23116 | 1.12807 | 34913 ft | 428 kts | 168° |
| 2026-05-06 16:38 | 46.17301 | 1.14734 | 34915 ft | 429 kts | 168° |
| 2026-05-06 16:38 | 46.11477 | 1.16662 | 34906 ft | 429 kts | 168° |
| 2026-05-06 16:39 | 46.05688 | 1.18573 | 34911 ft | 429 kts | 168° |
| 2026-05-06 16:39 | 45.99861 | 1.20493 | 34908 ft | 429 kts | 168° |
| 2026-05-06 16:40 | 45.94038 | 1.22408 | 34912 ft | 429 kts | 168° |
| 2026-05-06 16:40 | 45.88208 | 1.24321 | 34915 ft | 429 kts | 168° |
| 2026-05-06 16:41 | 45.82421 | 1.26216 | 34912 ft | 429 kts | 168° |
| 2026-05-06 16:41 | 45.76597 | 1.28119 | 34911 ft | 429 kts | 168° |
| 2026-05-06 16:42 | 45.70769 | 1.30019 | 34905 ft | 429 kts | 168° |
| 2026-05-06 16:42 | 45.64945 | 1.31914 | 34907 ft | 429 kts | 169° |
| 2026-05-06 16:43 | 45.60104 | 1.33486 | 34902 ft | 429 kts | 169° |
| 2026-05-06 16:43 | 45.54270 | 1.35377 | 34900 ft | 430 kts | 169° |
| 2026-05-06 16:44 | 45.48440 | 1.37263 | 34898 ft | 430 kts | 169° |
| 2026-05-06 16:44 | 45.42606 | 1.39145 | 34905 ft | 430 kts | 169° |
| 2026-05-06 16:45 | 45.35816 | 1.41331 | 34906 ft | 430 kts | 169° |
| 2026-05-06 16:45 | 45.30965 | 1.42890 | 34899 ft | 430 kts | 169° |
| 2026-05-06 16:46 | 45.25119 | 1.44766 | 34899 ft | 430 kts | 169° |
| 2026-05-06 16:46 | 45.19275 | 1.46637 | 34919 ft | 430 kts | 169° |
| 2026-05-06 16:47 | 45.13477 | 1.48490 | 34914 ft | 429 kts | 169° |
| 2026-05-06 16:47 | 45.07638 | 1.50352 | 34913 ft | 428 kts | 169° |
| 2026-05-06 16:48 | 45.01864 | 1.52189 | 34914 ft | 427 kts | 169° |
| 2026-05-06 16:48 | 44.96071 | 1.54029 | 34912 ft | 426 kts | 169° |
| 2026-05-06 16:49 | 44.90280 | 1.55864 | 34910 ft | 425 kts | 170° |
| 2026-05-06 16:49 | 44.84514 | 1.57687 | 34912 ft | 424 kts | 170° |
| 2026-05-06 16:50 | 44.78752 | 1.59505 | 34919 ft | 424 kts | 170° |
| 2026-05-06 16:50 | 44.72988 | 1.61320 | 34909 ft | 423 kts | 170° |
| 2026-05-06 16:51 | 44.67278 | 1.63115 | 34920 ft | 423 kts | 170° |
| 2026-05-06 16:51 | 44.61531 | 1.64917 | 34912 ft | 423 kts | 170° |
| 2026-05-06 16:52 | 44.55799 | 1.66712 | 34915 ft | 422 kts | 171° |
| 2026-05-06 16:52 | 44.50066 | 1.68503 | 34911 ft | 422 kts | 171° |
| 2026-05-06 16:53 | 44.44336 | 1.70290 | 34919 ft | 422 kts | 171° |
| 2026-05-06 16:53 | 44.38602 | 1.72074 | 34910 ft | 421 kts | 171° |
| 2026-05-06 16:54 | 44.32915 | 1.73841 | 34921 ft | 421 kts | 171° |
| 2026-05-06 16:54 | 44.27184 | 1.75510 | 34916 ft | 419 kts | 174° |
| 2026-05-06 16:55 | 44.21436 | 1.76758 | 34925 ft | 418 kts | 175° |
| 2026-05-06 16:55 | 44.15724 | 1.77955 | 34925 ft | 417 kts | 175° |
| 2026-05-06 16:56 | 44.09989 | 1.79201 | 34923 ft | 416 kts | 175° |
| 2026-05-06 16:56 | 44.04269 | 1.80456 | 34934 ft | 416 kts | 175° |
| 2026-05-06 16:57 | 43.98541 | 1.81712 | 34930 ft | 416 kts | 175° |
| 2026-05-06 16:57 | 43.92818 | 1.82808 | 34928 ft | 413 kts | 179° |
| 2026-05-06 16:58 | 43.87118 | 1.83339 | 34933 ft | 412 kts | 180° |
| 2026-05-06 16:58 | 43.81399 | 1.83804 | 34933 ft | 412 kts | 180° |
| 2026-05-06 16:59 | 43.75677 | 1.84323 | 34942 ft | 411 kts | 180° |
| 2026-05-06 16:59 | 43.69956 | 1.84872 | 34946 ft | 411 kts | 180° |
| 2026-05-06 17:00 | 43.64240 | 1.85427 | 34944 ft | 411 kts | 180° |
| 2026-05-06 17:00 | 43.58575 | 1.85976 | 34954 ft | 410 kts | 180° |
| 2026-05-06 17:01 | 43.52879 | 1.86525 | 34956 ft | 410 kts | 180° |
| 2026-05-06 17:01 | 43.47190 | 1.87072 | 34942 ft | 409 kts | 180° |
| 2026-05-06 17:02 | 43.41504 | 1.87619 | 34943 ft | 408 kts | 180° |
| 2026-05-06 17:02 | 43.35873 | 1.88159 | 34938 ft | 408 kts | 180° |
| 2026-05-06 17:03 | 43.30215 | 1.88703 | 34927 ft | 402 kts | 181° |
| 2026-05-06 17:03 | 43.24708 | 1.89238 | 34926 ft | 394 kts | 181° |
| 2026-05-06 17:04 | 43.19260 | 1.89760 | 34944 ft | 391 kts | 181° |
| 2026-05-06 17:04 | 43.13852 | 1.90277 | 34179 ft | 393 kts | 181° |
| 2026-05-06 17:04 | 43.11169 | 1.90533 | 33758 ft | 390 kts | 181° |
| 2026-05-06 17:05 | 43.08471 | 1.90791 | 33397 ft | 385 kts | 181° |
| 2026-05-06 17:05 | 43.05800 | 1.91047 | 32928 ft | 383 kts | 181° |
| 2026-05-06 17:05 | 43.03158 | 1.91301 | 32570 ft | 379 kts | 181° |
| 2026-05-06 17:05 | 43.00535 | 1.91552 | 32189 ft | 375 kts | 181° |
| 2026-05-06 17:06 | 42.97947 | 1.91799 | 31820 ft | 371 kts | 181° |
| 2026-05-06 17:06 | 42.95389 | 1.92043 | 31462 ft | 367 kts | 181° |
| 2026-05-06 17:06 | 42.92849 | 1.92285 | 31113 ft | 364 kts | 182° |
| 2026-05-06 17:06 | 42.90328 | 1.92524 | 30757 ft | 360 kts | 182° |
| 2026-05-06 17:07 | 42.87837 | 1.92760 | 30398 ft | 357 kts | 182° |
| 2026-05-06 17:07 | 42.85371 | 1.92994 | 30050 ft | 354 kts | 181° |
| 2026-05-06 17:07 | 42.82935 | 1.93225 | 29652 ft | 350 kts | 181° |
| 2026-05-06 17:07 | 42.80519 | 1.93454 | 29313 ft | 345 kts | 182° |
| 2026-05-06 17:08 | 42.78136 | 1.93680 | 28949 ft | 343 kts | 182° |
| 2026-05-06 17:08 | 42.75724 | 1.93901 | 28615 ft | 361 kts | 181° |
| 2026-05-06 17:08 | 42.73138 | 1.94137 | 28211 ft | 382 kts | 181° |
| 2026-05-06 17:08 | 42.70415 | 1.94391 | 27790 ft | 399 kts | 181° |
| 2026-05-06 17:09 | 42.67635 | 1.94660 | 27381 ft | 399 kts | 180° |
| 2026-05-06 17:09 | 42.64883 | 1.95114 | 26980 ft | 396 kts | 176° |
| 2026-05-06 17:09 | 42.62154 | 1.95672 | 26556 ft | 396 kts | 176° |
| 2026-05-06 17:09 | 42.59441 | 1.96236 | 26159 ft | 394 kts | 176° |
| 2026-05-06 17:10 | 42.56734 | 1.96796 | 25752 ft | 391 kts | 176° |
| 2026-05-06 17:10 | 42.54055 | 1.97342 | 25345 ft | 388 kts | 176° |
| 2026-05-06 17:10 | 42.51388 | 1.97879 | 24947 ft | 386 kts | 176° |
| 2026-05-06 17:10 | 42.48766 | 1.98403 | 24556 ft | 385 kts | 176° |
| 2026-05-06 17:11 | 42.46123 | 1.98929 | 24168 ft | 383 kts | 176° |
| 2026-05-06 17:11 | 42.43488 | 1.99452 | 23784 ft | 381 kts | 176° |
| 2026-05-06 17:11 | 42.40868 | 1.99972 | 23378 ft | 380 kts | 176° |
| 2026-05-06 17:11 | 42.38250 | 2.00492 | 22934 ft | 378 kts | 175° |
| 2026-05-06 17:12 | 42.35654 | 2.00974 | 22555 ft | 375 kts | 178° |
| 2026-05-06 17:12 | 42.33077 | 2.01317 | 22226 ft | 371 kts | 179° |
| 2026-05-06 17:12 | 42.30503 | 2.01606 | 21781 ft | 371 kts | 179° |
| 2026-05-06 17:12 | 42.27937 | 2.01894 | 21424 ft | 371 kts | 179° |
| 2026-05-06 17:13 | 42.25368 | 2.02197 | 21006 ft | 369 kts | 179° |
| 2026-05-06 17:13 | 42.22816 | 2.02509 | 20610 ft | 367 kts | 178° |
| 2026-05-06 17:13 | 42.20279 | 2.02807 | 20225 ft | 363 kts | 181° |
| 2026-05-06 17:13 | 42.17821 | 2.02428 | 19846 ft | 354 kts | 200° |
| 2026-05-06 17:14 | 42.15606 | 2.01058 | 19496 ft | 349 kts | 214° |
| 2026-05-06 17:14 | 42.13560 | 1.99354 | 19009 ft | 350 kts | 208° |
| 2026-05-06 17:14 | 42.11332 | 1.98019 | 18486 ft | 351 kts | 204° |
| 2026-05-06 17:14 | 42.09056 | 1.96829 | 17897 ft | 351 kts | 203° |
| 2026-05-06 17:15 | 42.06772 | 1.95653 | 17387 ft | 349 kts | 203° |
| 2026-05-06 17:15 | 42.04523 | 1.94467 | 16967 ft | 345 kts | 204° |
| 2026-05-06 17:15 | 42.02300 | 1.93263 | 16586 ft | 343 kts | 204° |
| 2026-05-06 17:15 | 42.00104 | 1.92048 | 16232 ft | 341 kts | 204° |
| 2026-05-06 17:16 | 41.97916 | 1.90820 | 15852 ft | 339 kts | 205° |
| 2026-05-06 17:16 | 41.95750 | 1.89594 | 15517 ft | 340 kts | 205° |
| 2026-05-06 17:16 | 41.93560 | 1.88348 | 15152 ft | 343 kts | 205° |
| 2026-05-06 17:16 | 41.91357 | 1.87092 | 14792 ft | 343 kts | 205° |
| 2026-05-06 17:17 | 41.89198 | 1.85859 | 14435 ft | 341 kts | 205° |
| 2026-05-06 17:17 | 41.87021 | 1.84616 | 14078 ft | 340 kts | 205° |
| 2026-05-06 17:17 | 41.84841 | 1.83373 | 13716 ft | 339 kts | 205° |
| 2026-05-06 17:17 | 41.82672 | 1.82137 | 13327 ft | 338 kts | 205° |
| 2026-05-06 17:18 | 41.80507 | 1.80905 | 12946 ft | 337 kts | 205° |
| 2026-05-06 17:18 | 41.78352 | 1.79678 | 12596 ft | 336 kts | 205° |
| 2026-05-06 17:18 | 41.76195 | 1.78451 | 12253 ft | 334 kts | 205° |
| 2026-05-06 17:18 | 41.74062 | 1.77239 | 11956 ft | 332 kts | 205° |
| 2026-05-06 17:19 | 41.71938 | 1.76033 | 11604 ft | 330 kts | 205° |
| 2026-05-06 17:19 | 41.69839 | 1.74843 | 11248 ft | 325 kts | 205° |
| 2026-05-06 17:19 | 41.67776 | 1.73673 | 10909 ft | 320 kts | 205° |
| 2026-05-06 17:19 | 41.65743 | 1.72521 | 10576 ft | 312 kts | 205° |
| 2026-05-06 17:20 | 41.63778 | 1.71409 | 10246 ft | 303 kts | 205° |
| 2026-05-06 17:20 | 41.61862 | 1.70325 | 9942 ft | 294 kts | 205° |
| 2026-05-06 17:20 | 41.60003 | 1.69274 | 9619 ft | 287 kts | 206° |
| 2026-05-06 17:20 | 41.58192 | 1.68249 | 9315 ft | 284 kts | 205° |
| 2026-05-06 17:21 | 41.56350 | 1.67207 | 9017 ft | 283 kts | 205° |
| 2026-05-06 17:21 | 41.54568 | 1.66200 | 8698 ft | 282 kts | 205° |
| 2026-05-06 17:21 | 41.52766 | 1.65181 | 8418 ft | 280 kts | 205° |
| 2026-05-06 17:21 | 41.50974 | 1.64170 | 8120 ft | 279 kts | 205° |
| 2026-05-06 17:22 | 41.49186 | 1.63162 | 7818 ft | 278 kts | 205° |
| 2026-05-06 17:22 | 41.47414 | 1.62163 | 7525 ft | 276 kts | 205° |
| 2026-05-06 17:22 | 41.45641 | 1.61165 | 7231 ft | 274 kts | 205° |
| 2026-05-06 17:22 | 41.43891 | 1.60180 | 6935 ft | 272 kts | 205° |
| 2026-05-06 17:23 | 41.42152 | 1.59205 | 6655 ft | 271 kts | 205° |
| 2026-05-06 17:23 | 41.40439 | 1.58241 | 6423 ft | 268 kts | 205° |
| 2026-05-06 17:23 | 41.38717 | 1.57272 | 6303 ft | 262 kts | 205° |
| 2026-05-06 17:23 | 41.37082 | 1.56352 | 6156 ft | 256 kts | 205° |
| 2026-05-06 17:24 | 41.35467 | 1.55448 | 6044 ft | 247 kts | 205° |
| 2026-05-06 17:24 | 41.33904 | 1.54564 | 5877 ft | 242 kts | 207° |
| 2026-05-06 17:24 | 41.32391 | 1.53611 | 5665 ft | 238 kts | 208° |
| 2026-05-06 17:24 | 41.30908 | 1.52650 | 5429 ft | 236 kts | 208° |
| 2026-05-06 17:25 | 41.29927 | 1.52017 | 5281 ft | 235 kts | 208° |
| 2026-05-06 17:25 | 41.28419 | 1.51051 | 5057 ft | 234 kts | 208° |
| 2026-05-06 17:25 | 41.26951 | 1.50119 | 4818 ft | 233 kts | 208° |
| 2026-05-06 17:25 | 41.25484 | 1.49182 | 4576 ft | 233 kts | 208° |
| 2026-05-06 17:26 | 41.24100 | 1.48157 | 4329 ft | 229 kts | 224° |
| 2026-05-06 17:26 | 41.23315 | 1.46410 | 4178 ft | 216 kts | 253° |
| 2026-05-06 17:26 | 41.22816 | 1.44521 | 3909 ft | 216 kts | 250° |
| 2026-05-06 17:26 | 41.22275 | 1.42668 | 3702 ft | 216 kts | 251° |
| 2026-05-06 17:27 | 41.21753 | 1.40818 | 3514 ft | 210 kts | 251° |
| 2026-05-06 17:27 | 41.21250 | 1.39053 | 3302 ft | 198 kts | 249° |
| 2026-05-06 17:27 | 41.20741 | 1.37418 | 3155 ft | 182 kts | 250° |
| 2026-05-06 17:27 | 41.20306 | 1.35896 | 2972 ft | 178 kts | 250° |
| 2026-05-06 17:28 | 41.19876 | 1.34394 | 2800 ft | 172 kts | 250° |
| 2026-05-06 17:28 | 41.19461 | 1.32952 | 2583 ft | 163 kts | 251° |
| 2026-05-06 17:28 | 41.19047 | 1.31553 | 2360 ft | 160 kts | 249° |
| 2026-05-06 17:28 | 41.18645 | 1.30160 | 2161 ft | 161 kts | 250° |
| 2026-05-06 17:29 | 41.18242 | 1.28770 | 1912 ft | 160 kts | 249° |
| 2026-05-06 17:29 | 41.17850 | 1.27421 | 1690 ft | 152 kts | 249° |
| 2026-05-06 17:29 | 41.17473 | 1.26128 | 1543 ft | 147 kts | 249° |
| 2026-05-06 17:29 | 41.17120 | 1.24914 | 1349 ft | 137 kts | 249° |
| 2026-05-06 17:30 | 41.16779 | 1.23745 | 1126 ft | 135 kts | 247° |
| 2026-05-06 17:30 | 41.16443 | 1.22579 | 955 ft | 136 kts | 248° |
| 2026-05-06 17:30 | 41.16208 | 1.21772 | 844 ft | 145 kts | 246° |
| 2026-05-06 17:30 | 41.15836 | 1.20504 | 640 ft | 147 kts | 247° |
| 2026-05-06 17:31 | 41.15478 | 1.19256 | 427 ft | 143 kts | 245° |
| 2026-05-06 17:31 | 41.15121 | 1.18015 | 244 ft | 143 kts | 246° |
| 2026-05-06 17:31 | 41.14808 | 1.16953 | 241 ft | 97 kts | 249° |
| 2026-05-06 17:31 | 41.14643 | 1.16382 | 241 ft | 46 kts | 248° |
| 2026-05-06 17:32 | 41.14547 | 1.16063 | 241 ft | 32 kts | 249° |
| 2026-05-06 17:32 | 41.14565 | 1.15904 | 241 ft | 10 kts | 342° |
| 2026-05-06 17:32 | 41.14604 | 1.15880 | 241 ft | 0 kts | 337° |
| 2026-05-06 17:33 | 41.14606 | 1.15879 | 241 ft | 1 kts | 337° |
| 2026-05-06 17:33 | 41.14637 | 1.15865 | 241 ft | 7 kts | 349° |
| 2026-05-06 17:33 | 41.14674 | 1.15895 | 241 ft | 7 kts | 65° |
| 2026-05-06 17:33 | 41.14693 | 1.15951 | 241 ft | 7 kts | 68° |
| 2026-05-06 17:34 | 41.14709 | 1.16009 | 241 ft | 7 kts | 69° |
| 2026-05-06 17:34 | 41.14726 | 1.16065 | 241 ft | 6 kts | 68° |
| 2026-05-06 17:34 | 41.14763 | 1.16086 | 241 ft | 7 kts | 349° |
| 2026-05-06 17:34 | 41.14806 | 1.16066 | 241 ft | 7 kts | 339° |
| 2026-05-06 17:35 | 41.14812 | 1.16064 | 241 ft | 0 kts | 339° |